createdAt,value
2023-02-18T00:00:09.363Z,10.00
2023-02-18T00:02:38.730Z,10.00
2023-02-18T00:05:07.322Z,10.00
2023-02-18T00:07:36.295Z,10.00
2023-02-18T00:10:06.036Z,10.00
2023-02-18T00:12:34.153Z,10.00
2023-02-18T00:15:02.137Z,10.00
2023-02-18T00:17:30.805Z,10.00
2023-02-18T00:20:00.188Z,10.10
2023-02-18T00:22:28.256Z,10.00
2023-02-18T00:24:56.477Z,10.00
2023-02-18T00:27:24.489Z,10.10
2023-02-18T00:29:52.989Z,10.10
2023-02-18T00:32:21.001Z,10.10
2023-02-18T00:34:49.512Z,10.10
2023-02-18T00:37:18.855Z,10.10
2023-02-18T00:39:46.801Z,10.10
2023-02-18T00:42:15.037Z,10.00
2023-02-18T00:44:43.080Z,10.10
2023-02-18T00:47:11.029Z,10.10
2023-02-18T00:49:39.304Z,10.10
2023-02-18T00:52:08.607Z,10.10
2023-02-18T00:54:37.971Z,10.00
2023-02-18T00:57:05.913Z,10.10
2023-02-18T00:59:33.906Z,10.10
2023-02-18T01:02:02.774Z,10.10
2023-02-18T01:04:30.793Z,10.10
2023-02-18T01:06:58.842Z,10.10
2023-02-18T01:09:26.896Z,10.10
2023-02-18T01:11:56.546Z,10.00
2023-02-18T01:14:24.617Z,10.00
2023-02-18T01:16:52.879Z,10.10
2023-02-18T01:19:21.054Z,10.10
2023-02-18T01:21:49.228Z,10.10
2023-02-18T01:24:17.788Z,10.10
2023-02-18T01:26:46.197Z,10.10
2023-02-18T01:29:17.837Z,10.10
2023-02-18T01:31:46.001Z,10.10
2023-02-18T01:34:15.173Z,10.10
2023-02-18T01:36:43.419Z,10.10
2023-02-18T01:39:11.967Z,10.10
2023-02-18T01:41:40.258Z,10.10
2023-02-18T01:44:18.074Z,10.10
2023-02-18T01:46:47.242Z,10.10
2023-02-18T01:49:20.315Z,10.10
2023-02-18T01:51:51.340Z,10.10
2023-02-18T01:54:23.046Z,10.10
2023-02-18T01:56:56.170Z,10.10
2023-02-18T01:59:29.306Z,10.10
2023-02-18T02:01:58.532Z,10.20
2023-02-18T02:04:26.806Z,10.20
2023-02-18T02:06:54.845Z,10.20
2023-02-18T02:09:27.962Z,10.20
2023-02-18T02:12:29.412Z,10.10
2023-02-18T02:15:16.332Z,10.10
2023-02-18T02:17:57.517Z,10.10
2023-02-18T02:20:53.778Z,10.10
2023-02-18T02:23:54.209Z,10.10
2023-02-18T02:27:06.617Z,10.10
2023-02-18T02:30:23.812Z,10.10
2023-02-18T02:33:16.041Z,10.10
2023-02-18T02:35:51.453Z,10.10
2023-02-18T02:38:25.241Z,10.10
2023-02-18T02:41:01.289Z,10.10
2023-02-18T02:43:41.008Z,10.10
2023-02-18T02:46:15.279Z,10.10
2023-02-18T02:48:47.783Z,10.10
2023-02-18T02:51:22.810Z,10.10
2023-02-18T02:53:51.551Z,10.10
2023-02-18T02:56:23.196Z,10.10
2023-02-18T02:59:00.246Z,10.00
2023-02-18T03:01:42.715Z,10.10
2023-02-18T03:04:29.590Z,10.10
2023-02-18T03:07:15.679Z,10.10
2023-02-18T03:10:09.178Z,10.20
2023-02-18T03:12:44.446Z,10.10
2023-02-18T03:15:24.276Z,10.10
2023-02-18T03:18:00.212Z,10.10
2023-02-18T03:20:34.106Z,10.00
2023-02-18T03:23:07.409Z,10.00
2023-02-18T03:25:37.335Z,10.00
2023-02-18T03:28:09.641Z,10.00
2023-02-18T03:30:42.992Z,10.00
2023-02-18T03:33:15.245Z,10.10
2023-02-18T03:35:45.604Z,10.00
2023-02-18T03:38:21.413Z,10.10
2023-02-18T03:40:50.319Z,10.10
2023-02-18T03:43:18.880Z,10.10
2023-02-18T03:45:46.902Z,10.10
2023-02-18T03:48:14.852Z,10.10
2023-02-18T03:50:42.904Z,10.10
2023-02-18T03:53:10.812Z,10.10
2023-02-18T03:55:40.264Z,10.20
2023-02-18T03:58:08.434Z,10.10
2023-02-18T04:00:36.429Z,10.10
2023-02-18T04:03:04.587Z,10.10
2023-02-18T04:05:32.655Z,10.20
2023-02-18T04:08:00.590Z,10.20
2023-02-18T04:10:28.679Z,10.10
2023-02-18T04:12:58.028Z,10.20
2023-02-18T04:15:26.598Z,10.20
2023-02-18T04:17:54.629Z,10.10
2023-02-18T04:20:23.883Z,10.10
2023-02-18T04:22:52.119Z,10.10
2023-02-18T04:25:20.077Z,10.10
2023-02-18T04:27:48.471Z,10.10
2023-02-18T04:30:19.094Z,10.10
2023-02-18T04:32:47.211Z,10.20
2023-02-18T04:35:15.642Z,10.10
2023-02-18T04:37:43.658Z,10.10
2023-02-18T04:40:12.581Z,10.20
2023-02-18T04:42:41.124Z,10.20
2023-02-18T04:45:10.602Z,10.10
2023-02-18T04:47:39.886Z,10.20
2023-02-18T04:50:09.593Z,10.20
2023-02-18T04:52:37.526Z,10.10
2023-02-18T04:55:05.817Z,10.20
2023-02-18T04:57:34.141Z,10.20
2023-02-18T05:00:03.639Z,10.20
2023-02-18T05:02:31.804Z,10.20
2023-02-18T05:05:01.980Z,10.20
2023-02-18T05:07:30.233Z,10.20
2023-02-18T05:09:58.142Z,10.20
2023-02-18T05:12:26.457Z,10.30
2023-02-18T05:14:55.079Z,10.20
2023-02-18T05:17:23.057Z,10.20
2023-02-18T05:19:51.051Z,10.20
2023-02-18T05:22:20.412Z,10.20
2023-02-18T05:24:48.758Z,10.20
2023-02-18T05:27:16.920Z,10.20
2023-02-18T05:29:45.357Z,10.10
2023-02-18T05:32:13.520Z,10.10
2023-02-18T05:34:42.158Z,10.10
2023-02-18T05:37:10.440Z,10.10
2023-02-18T05:39:40.184Z,10.10
2023-02-18T05:42:08.827Z,10.10
2023-02-18T05:44:36.820Z,10.10
2023-02-18T05:47:09.317Z,10.10
2023-02-18T05:49:40.661Z,10.10
2023-02-18T05:52:09.860Z,10.10
2023-02-18T05:54:40.402Z,10.10
2023-02-18T05:57:08.855Z,10.10
2023-02-18T05:59:37.016Z,10.20
2023-02-18T06:02:04.979Z,10.20
2023-02-18T06:04:33.810Z,10.10
2023-02-18T06:07:02.254Z,10.10
2023-02-18T06:09:30.428Z,10.20
2023-02-18T06:12:00.329Z,10.20
2023-02-18T06:14:28.330Z,10.10
2023-02-18T06:16:56.701Z,10.10
2023-02-18T06:19:24.890Z,10.20
2023-02-18T06:21:52.995Z,10.10
2023-02-18T06:24:21.277Z,10.10
2023-02-18T06:26:50.082Z,10.00
2023-02-18T06:29:19.421Z,10.00
2023-02-18T06:31:47.533Z,10.00
2023-02-18T06:34:15.966Z,10.00
2023-02-18T06:36:44.156Z,10.00
2023-02-18T06:39:12.078Z,10.00
2023-02-18T06:41:40.980Z,10.00
2023-02-18T06:44:09.786Z,10.00
2023-02-18T06:46:39.657Z,10.00
2023-02-18T06:49:07.933Z,10.00
2023-02-18T06:51:35.982Z,10.00
2023-02-18T06:54:04.261Z,10.00
2023-02-18T06:56:53.089Z,10.10
2023-02-18T06:59:21.219Z,10.10
2023-02-18T07:01:50.916Z,10.20
2023-02-18T07:04:18.879Z,10.20
2023-02-18T07:06:47.894Z,10.20
2023-02-18T07:09:15.867Z,10.20
2023-02-18T07:11:44.091Z,10.30
2023-02-18T07:14:12.046Z,10.30
2023-02-18T07:16:41.056Z,10.40
2023-02-18T07:19:10.352Z,10.40
2023-02-18T07:21:38.914Z,10.30
2023-02-18T07:24:07.677Z,10.40
2023-02-18T07:26:38.496Z,10.50
2023-02-18T07:29:06.801Z,10.50
2023-02-18T07:31:35.219Z,10.60
2023-02-18T07:34:03.334Z,10.70
2023-02-18T07:36:32.680Z,10.70
2023-02-18T07:39:03.398Z,10.70
2023-02-18T07:41:31.408Z,10.70
2023-02-18T07:43:59.369Z,10.70
2023-02-18T07:46:28.254Z,10.80
2023-02-18T07:49:00.699Z,10.80
2023-02-18T07:51:28.698Z,10.80
2023-02-18T07:53:58.581Z,10.80
2023-02-18T07:56:27.303Z,10.90
2023-02-18T08:01:47.242Z,10.90
2023-02-18T08:04:15.952Z,10.90
2023-02-18T08:06:46.712Z,11.00
2023-02-18T08:09:21.455Z,11.00
2023-02-18T08:11:50.327Z,11.10
2023-02-18T08:14:21.801Z,11.10
2023-02-18T08:16:49.846Z,11.10
2023-02-18T08:19:17.838Z,11.10
2023-02-18T08:21:46.132Z,11.10
2023-02-18T08:24:14.068Z,11.20
2023-02-18T08:26:58.245Z,11.20
2023-02-18T08:29:30.142Z,11.30
2023-02-18T08:32:00.090Z,11.30
2023-02-18T08:34:28.237Z,11.40
2023-02-18T08:36:57.002Z,11.50
2023-02-18T08:39:25.875Z,11.50
2023-02-18T08:41:55.300Z,11.60
2023-02-18T08:44:23.242Z,11.70
2023-02-18T08:46:51.849Z,11.90
2023-02-18T08:49:23.988Z,12.00
2023-02-18T08:51:52.969Z,12.10
2023-02-18T08:54:21.173Z,12.10
2023-02-18T08:56:52.010Z,12.20
2023-02-18T08:59:21.655Z,12.40
2023-02-18T09:01:50.343Z,12.50
2023-02-18T09:04:21.106Z,12.60
2023-02-18T09:06:50.030Z,12.60
2023-02-18T09:09:19.241Z,12.70
2023-02-18T09:11:47.754Z,12.60
2023-02-18T09:14:16.447Z,12.70
2023-02-18T09:16:46.009Z,12.70
2023-02-18T09:19:14.076Z,12.60
2023-02-18T09:21:42.370Z,12.70
2023-02-18T09:24:10.833Z,12.70
2023-02-18T09:26:39.797Z,12.70
2023-02-18T09:29:07.896Z,12.70
2023-02-18T09:31:35.985Z,12.70
2023-02-18T09:34:06.494Z,12.80
2023-02-18T09:36:35.229Z,12.80
2023-02-18T09:39:03.938Z,12.80
2023-02-18T09:41:39.199Z,12.80
2023-02-18T09:44:12.392Z,12.80
2023-02-18T09:46:43.700Z,12.80
2023-02-18T09:49:17.926Z,12.80
2023-02-18T09:51:46.709Z,12.90
2023-02-18T09:54:18.771Z,12.90
2023-02-18T09:56:48.997Z,12.90
2023-02-18T09:59:22.279Z,13.00
2023-02-18T10:01:52.973Z,13.20
2023-02-18T10:04:25.935Z,13.50
2023-02-18T10:06:55.940Z,13.60
2023-02-18T10:09:26.892Z,13.70
2023-02-18T10:14:51.018Z,13.60
2023-02-18T10:17:19.845Z,13.50
2023-02-18T10:19:50.958Z,13.40
2023-02-18T10:22:22.104Z,13.40
2023-02-18T10:24:53.502Z,13.40
2023-02-18T10:27:26.219Z,13.40
2023-02-18T10:29:57.130Z,13.40
2023-02-18T10:32:28.786Z,13.40
2023-02-18T10:35:07.782Z,13.40
2023-02-18T10:37:56.124Z,13.30
2023-02-18T10:40:34.906Z,13.30
2023-02-18T10:43:12.791Z,13.30
2023-02-18T10:45:50.351Z,13.30
2023-02-18T10:48:40.802Z,13.30
2023-02-18T10:51:16.709Z,13.30
2023-02-18T10:53:47.625Z,13.40
2023-02-18T10:56:39.281Z,13.40
2023-02-18T10:59:12.882Z,13.40
2023-02-18T11:01:42.191Z,13.50
2023-02-18T11:04:16.947Z,13.50
2023-02-18T11:06:50.116Z,13.50
2023-02-18T11:09:32.901Z,13.50
2023-02-18T11:12:08.678Z,13.40
2023-02-18T11:14:46.244Z,13.40
2023-02-18T11:17:22.301Z,13.30
2023-02-18T11:19:56.320Z,13.30
2023-02-18T11:22:29.859Z,13.30
2023-02-18T11:24:59.614Z,13.30
2023-02-18T11:27:32.840Z,13.30
2023-02-18T11:30:05.696Z,13.20
2023-02-18T11:32:38.082Z,13.20
2023-02-18T11:35:07.225Z,13.20
2023-02-18T11:37:39.046Z,13.20
2023-02-18T11:40:08.505Z,13.30
2023-02-18T11:42:37.127Z,13.30
2023-02-18T11:45:05.826Z,13.30
2023-02-18T11:47:35.813Z,13.30
2023-02-18T11:50:17.305Z,13.30
2023-02-18T11:52:49.134Z,13.30
2023-02-18T11:55:21.113Z,13.40
2023-02-18T11:57:56.014Z,13.30
2023-02-18T12:00:31.375Z,13.30
2023-02-18T12:03:01.053Z,13.30
2023-02-18T12:05:30.585Z,13.30
2023-02-18T12:08:05.073Z,13.30
2023-02-18T12:10:36.744Z,13.30
2023-02-18T12:13:13.426Z,13.30
2023-02-18T12:15:54.692Z,13.30
2023-02-18T12:18:42.837Z,13.30
2023-02-18T12:21:41.494Z,13.30
2023-02-18T12:24:23.935Z,13.30
2023-02-18T12:27:00.886Z,13.40
2023-02-18T12:29:42.920Z,13.40
2023-02-18T12:32:25.929Z,13.40
2023-02-18T12:35:06.522Z,13.40
2023-02-18T12:37:53.727Z,13.40
2023-02-18T12:40:41.156Z,13.40
2023-02-18T12:43:22.395Z,13.40
2023-02-18T12:46:11.250Z,13.40
2023-02-18T12:48:55.359Z,13.40
2023-02-18T12:51:32.816Z,13.40
2023-02-18T12:54:21.204Z,13.40
2023-02-18T12:57:03.873Z,13.40
2023-02-18T13:03:28.187Z,13.40
2023-02-18T13:06:03.249Z,13.50
2023-02-18T13:08:42.376Z,13.50
2023-02-18T13:11:26.206Z,13.50
2023-02-18T13:14:01.820Z,13.60
2023-02-18T13:16:32.239Z,13.60
2023-02-18T13:19:04.499Z,13.50
2023-02-18T13:21:33.649Z,13.50
2023-02-18T13:27:01.059Z,13.50
2023-02-18T13:29:36.194Z,13.50
2023-02-18T13:32:13.710Z,13.50
2023-02-18T13:34:49.505Z,13.50
2023-02-18T13:37:27.586Z,13.40
2023-02-18T13:39:57.868Z,13.40
2023-02-18T13:42:37.637Z,13.40
2023-02-18T13:45:29.621Z,13.40
2023-02-18T13:47:59.519Z,13.40
2023-02-18T13:50:43.969Z,13.40
2023-02-18T13:53:30.879Z,13.40
2023-02-18T13:56:05.127Z,13.40
2023-02-18T13:58:41.154Z,13.50
2023-02-18T14:01:38.087Z,13.50
2023-02-18T14:04:36.380Z,13.50
2023-02-18T14:07:29.806Z,13.50
2023-02-18T14:10:01.217Z,13.60
2023-02-18T14:12:39.118Z,13.70
2023-02-18T14:15:44.596Z,13.70
2023-02-18T14:18:27.430Z,13.70
2023-02-18T14:21:07.183Z,13.70
2023-02-18T14:23:56.177Z,13.60
2023-02-18T14:26:31.039Z,13.60
2023-02-18T14:29:06.540Z,13.50
2023-02-18T14:31:38.991Z,13.50
2023-02-18T14:34:29.995Z,13.50
2023-02-18T14:37:12.076Z,13.40
2023-02-18T14:39:52.598Z,13.40
2023-02-18T14:42:32.180Z,13.40
2023-02-18T14:45:16.042Z,13.40
2023-02-18T14:47:57.264Z,13.30
2023-02-18T14:50:34.730Z,13.30
2023-02-18T14:53:07.318Z,13.40
2023-02-18T14:55:39.813Z,13.40
2023-02-18T14:58:14.496Z,13.30
2023-02-18T15:00:45.484Z,13.30
2023-02-18T15:03:16.299Z,13.30
2023-02-18T15:05:47.547Z,13.30
2023-02-18T15:08:18.778Z,13.30
2023-02-18T15:10:49.980Z,13.30
2023-02-18T15:13:21.639Z,13.20
2023-02-18T15:15:53.257Z,13.20
2023-02-18T15:18:31.037Z,13.20
2023-02-18T15:21:02.732Z,13.10
2023-02-18T15:23:32.047Z,13.00
2023-02-18T15:26:00.101Z,13.00
2023-02-18T15:28:30.420Z,13.00
2023-02-18T15:30:59.650Z,12.90
2023-02-18T15:33:28.496Z,12.90
2023-02-18T15:36:07.123Z,12.80
2023-02-18T15:38:35.362Z,12.80
2023-02-18T15:41:04.015Z,12.80
2023-02-18T15:43:56.326Z,12.70
2023-02-18T15:46:26.429Z,12.70
2023-02-18T15:48:57.168Z,12.70
2023-02-18T15:51:30.525Z,12.60
2023-02-18T15:54:01.763Z,12.60
2023-02-18T15:56:33.414Z,12.60
2023-02-18T15:59:21.476Z,12.60
2023-02-18T16:01:52.278Z,12.50
2023-02-18T16:04:22.478Z,12.50
2023-02-18T16:06:53.564Z,12.40
2023-02-18T16:09:26.648Z,12.40
2023-02-18T16:11:59.407Z,12.40
2023-02-18T16:14:32.635Z,12.40
2023-02-18T16:17:16.362Z,12.40
2023-02-18T16:20:04.055Z,12.40
2023-02-18T16:22:44.077Z,12.40
2023-02-18T16:25:20.261Z,12.40
2023-02-18T16:27:52.804Z,12.30
2023-02-18T16:30:23.593Z,12.30
2023-02-18T16:32:52.058Z,12.30
2023-02-18T16:35:21.058Z,12.30
2023-02-18T16:37:51.124Z,12.30
2023-02-18T16:40:29.943Z,12.30
2023-02-18T16:43:00.340Z,12.20
2023-02-18T16:45:35.028Z,12.20
2023-02-18T16:48:03.733Z,12.20
2023-02-18T16:50:34.018Z,12.20
2023-02-18T16:53:04.008Z,12.10
2023-02-18T16:55:32.141Z,12.10
2023-02-18T16:58:00.299Z,12.10
2023-02-18T17:00:28.288Z,12.10
2023-02-18T17:03:00.158Z,12.10
2023-02-18T17:05:30.512Z,12.00
2023-02-18T17:08:05.730Z,12.00
2023-02-18T17:10:36.298Z,12.00
2023-02-18T17:13:05.661Z,12.00
2023-02-18T17:15:36.056Z,12.00
2023-02-18T17:18:04.846Z,12.00
2023-02-18T17:20:34.185Z,12.00
2023-02-18T17:23:02.328Z,11.90
2023-02-18T17:25:32.601Z,11.90
2023-02-18T17:28:02.605Z,12.00
2023-02-18T17:30:31.410Z,11.90
2023-02-18T17:33:03.050Z,12.00
2023-02-18T17:35:32.071Z,12.00
2023-02-18T17:38:00.161Z,11.90
2023-02-18T17:40:29.624Z,11.90
2023-02-18T17:42:58.007Z,11.90
2023-02-18T17:45:32.464Z,11.80
2023-02-18T17:48:01.816Z,11.80
2023-02-18T17:50:32.074Z,11.80
2023-02-18T17:53:00.666Z,11.80
2023-02-18T17:55:31.818Z,11.80
2023-02-18T17:58:00.353Z,11.70
2023-02-18T18:00:32.820Z,11.70
2023-02-18T18:03:04.160Z,11.70
2023-02-18T18:05:34.118Z,11.70
2023-02-18T18:08:03.032Z,11.70
2023-02-18T18:10:33.648Z,11.70
2023-02-18T18:13:03.079Z,11.70
2023-02-18T18:15:37.668Z,11.70
2023-02-18T18:18:07.009Z,11.70
2023-02-18T18:20:36.748Z,11.80
2023-02-18T18:23:07.193Z,11.70
2023-02-18T18:25:38.436Z,11.70
2023-02-18T18:28:12.150Z,11.70
2023-02-18T18:30:44.723Z,11.70
2023-02-18T18:33:18.165Z,11.60
2023-02-18T18:35:51.706Z,11.60
2023-02-18T18:41:13.818Z,11.60
2023-02-18T18:43:42.651Z,11.60
2023-02-18T18:46:12.051Z,11.50
2023-02-18T18:48:43.337Z,11.50
2023-02-18T18:51:16.400Z,11.50
2023-02-18T18:53:45.024Z,11.50
2023-02-18T18:56:13.910Z,11.50
2023-02-18T18:58:42.348Z,11.50
2023-02-18T19:01:17.475Z,11.50
2023-02-18T19:03:46.238Z,11.50
2023-02-18T19:06:16.005Z,11.50
2023-02-18T19:08:45.203Z,11.50
2023-02-18T19:11:15.269Z,11.50
2023-02-18T19:13:43.360Z,11.60
2023-02-18T19:16:20.941Z,11.60
2023-02-18T19:18:49.895Z,11.50
2023-02-18T19:21:17.881Z,11.60
2023-02-18T19:23:46.121Z,11.60
2023-02-18T19:26:17.161Z,11.50
2023-02-18T19:28:45.632Z,11.50
2023-02-18T19:31:14.452Z,11.40
2023-02-18T19:33:47.198Z,11.40
2023-02-18T19:36:16.695Z,11.40
2023-02-18T19:38:45.530Z,11.40
2023-02-18T19:41:16.857Z,11.50
2023-02-18T19:43:46.911Z,11.50
2023-02-18T19:46:18.425Z,11.40
2023-02-18T19:48:52.320Z,11.30
2023-02-18T19:51:23.120Z,11.20
2023-02-18T19:53:51.997Z,11.20
2023-02-18T19:56:20.041Z,11.10
2023-02-18T19:58:48.332Z,11.10
2023-02-18T20:01:17.538Z,11.10
2023-02-18T20:03:47.180Z,11.20
2023-02-18T20:06:19.307Z,11.10
2023-02-18T20:08:48.402Z,11.10
2023-02-18T20:11:16.449Z,11.10
2023-02-18T20:13:44.735Z,11.00
2023-02-18T20:16:12.992Z,11.10
2023-02-18T20:18:44.457Z,11.10
2023-02-18T20:21:12.966Z,11.00
2023-02-18T20:23:42.865Z,11.00
2023-02-18T20:26:14.644Z,11.00
2023-02-18T20:28:44.397Z,11.00
2023-02-18T20:31:14.467Z,11.00
2023-02-18T20:33:46.377Z,10.90
2023-02-18T20:36:15.446Z,10.90
2023-02-18T20:38:45.744Z,10.90
2023-02-18T20:41:17.581Z,10.90
2023-02-18T20:43:45.995Z,10.90
2023-02-18T20:46:16.122Z,10.80
2023-02-18T20:48:45.190Z,10.80
2023-02-18T20:51:16.474Z,10.80
2023-02-18T20:53:48.329Z,10.70
2023-02-18T20:56:16.560Z,10.80
2023-02-18T20:58:45.340Z,10.80
2023-02-18T21:01:16.428Z,10.70
2023-02-18T21:03:46.892Z,10.70
2023-02-18T21:06:19.607Z,10.70
2023-02-18T21:08:50.749Z,10.60
2023-02-18T21:11:21.478Z,10.60
2023-02-18T21:13:51.260Z,10.60
2023-02-18T21:16:21.712Z,10.60
2023-02-18T21:18:51.529Z,10.60
2023-02-18T21:21:22.843Z,10.60
2023-02-18T21:23:53.934Z,10.50
2023-02-18T21:26:24.158Z,10.50
2023-02-18T21:28:54.319Z,10.50
2023-02-18T21:31:25.268Z,10.50
2023-02-18T21:33:53.811Z,10.50
2023-02-18T21:36:22.344Z,10.50
2023-02-18T21:38:56.092Z,10.50
2023-02-18T21:41:25.542Z,10.40
2023-02-18T21:43:53.819Z,10.40
2023-02-18T21:46:24.479Z,10.50
2023-02-18T21:49:07.078Z,10.40
2023-02-18T21:51:56.471Z,10.40
2023-02-18T21:54:28.883Z,10.40
2023-02-18T21:56:58.525Z,10.40
2023-02-18T21:59:28.252Z,10.40
2023-02-18T22:01:59.776Z,10.40
2023-02-18T22:04:28.347Z,10.30
2023-02-18T22:06:56.817Z,10.30
2023-02-18T22:09:26.724Z,10.30
2023-02-18T22:11:55.199Z,10.30
2023-02-18T22:14:25.366Z,10.30
2023-02-18T22:16:53.416Z,10.20
2023-02-18T22:19:21.417Z,10.20
2023-02-18T22:22:11.401Z,10.10
2023-02-18T22:24:40.812Z,10.10
2023-02-18T22:27:08.826Z,10.10
2023-02-18T22:29:37.397Z,10.10
2023-02-18T22:32:05.856Z,10.00
2023-02-18T22:34:35.033Z,10.00
2023-02-18T22:37:03.205Z,10.00
2023-02-18T22:39:31.723Z,10.00
2023-02-18T22:42:01.156Z,9.90
2023-02-18T22:44:29.649Z,9.90
2023-02-18T22:46:58.136Z,9.90
2023-02-18T22:49:26.522Z,9.80
2023-02-18T22:51:55.802Z,9.80
2023-02-18T22:54:24.417Z,9.80
2023-02-18T22:56:53.998Z,9.80
2023-02-18T22:59:23.271Z,9.80
2023-02-18T23:01:52.910Z,9.80
2023-02-18T23:04:22.595Z,9.70
2023-02-18T23:06:51.495Z,9.70
2023-02-18T23:09:21.782Z,9.70
2023-02-18T23:11:54.160Z,9.70
2023-02-18T23:14:23.524Z,9.70
2023-02-18T23:17:20.632Z,9.70
2023-02-18T23:19:50.865Z,9.70
2023-02-18T23:22:21.560Z,9.70
2023-02-18T23:24:50.112Z,9.60
2023-02-18T23:27:18.645Z,9.60
2023-02-18T23:29:48.341Z,9.60
2023-02-18T23:32:16.507Z,9.60
2023-02-18T23:34:45.000Z,9.60
2023-02-18T23:37:13.103Z,9.50
2023-02-18T23:39:41.209Z,9.50
2023-02-18T23:42:09.561Z,9.50
2023-02-18T23:44:37.546Z,9.50
2023-02-18T23:47:08.365Z,9.50
2023-02-18T23:49:36.323Z,9.50
2023-02-18T23:52:04.383Z,9.50
2023-02-18T23:54:32.305Z,9.50
2023-02-18T23:57:00.334Z,9.50
2023-02-18T23:59:28.283Z,9.40
